sensor_id;sensor_type;location;lat;lon;timestamp;pressure;altitude;pressure_sealevel;temperature;humidity
85623;BME280;76049;43.076;25.632;2024-01-27T00:02:25;99976.09;;;1.63;65.16
85623;BME280;76049;43.076;25.632;2024-01-27T00:07:33;99983.00;;;1.49;65.18
85623;BME280;76049;43.076;25.632;2024-01-27T00:12:40;99988.16;;;1.36;65.57
85623;BME280;76049;43.076;25.632;2024-01-27T00:17:47;99986.05;;;1.24;65.89
85623;BME280;76049;43.076;25.632;2024-01-27T00:22:55;99984.38;;;1.15;66.22
85623;BME280;76049;43.076;25.632;2024-01-27T00:28:02;99984.04;;;1.07;66.50
85623;BME280;76049;43.076;25.632;2024-01-27T00:33:09;99987.10;;;1.01;66.73
85623;BME280;76049;43.076;25.632;2024-01-27T00:38:17;99984.06;;;1.04;66.99
85623;BME280;76049;43.076;25.632;2024-01-27T00:43:25;99977.92;;;1.14;66.87
85623;BME280;76049;43.076;25.632;2024-01-27T00:48:32;99974.20;;;1.26;66.78
85623;BME280;76049;43.076;25.632;2024-01-27T00:53:46;99968.64;;;1.33;66.69
85623;BME280;76049;43.076;25.632;2024-01-27T00:58:53;99962.38;;;1.29;66.07
85623;BME280;76049;43.076;25.632;2024-01-27T01:04:00;99959.10;;;1.23;65.96
85623;BME280;76049;43.076;25.632;2024-01-27T01:09:08;99946.33;;;1.13;66.25
85623;BME280;76049;43.076;25.632;2024-01-27T01:14:16;99945.83;;;1.00;66.43
85623;BME280;76049;43.076;25.632;2024-01-27T01:19:23;99945.92;;;0.90;66.79
85623;BME280;76049;43.076;25.632;2024-01-27T01:24:31;99939.23;;;0.82;66.91
85623;BME280;76049;43.076;25.632;2024-01-27T01:29:38;99930.61;;;0.72;67.31
85623;BME280;76049;43.076;25.632;2024-01-27T01:34:47;99922.95;;;0.63;67.73
85623;BME280;76049;43.076;25.632;2024-01-27T01:39:54;99919.80;;;0.55;67.92
85623;BME280;76049;43.076;25.632;2024-01-27T01:45:02;99916.77;;;0.46;67.89
85623;BME280;76049;43.076;25.632;2024-01-27T01:50:10;99904.22;;;0.39;68.08
85623;BME280;76049;43.076;25.632;2024-01-27T01:55:18;99908.46;;;0.31;68.14
85623;BME280;76049;43.076;25.632;2024-01-27T02:00:26;99914.11;;;0.23;68.62
85623;BME280;76049;43.076;25.632;2024-01-27T02:05:34;99913.75;;;0.17;68.73
85623;BME280;76049;43.076;25.632;2024-01-27T02:10:41;99914.30;;;0.11;68.86
85623;BME280;76049;43.076;25.632;2024-01-27T02:15:49;99914.58;;;0.08;69.10
85623;BME280;76049;43.076;25.632;2024-01-27T02:20:57;99913.35;;;0.08;69.28
85623;BME280;76049;43.076;25.632;2024-01-27T02:26:04;99914.98;;;0.08;69.14
85623;BME280;76049;43.076;25.632;2024-01-27T02:31:12;99925.44;;;0.12;68.99
85623;BME280;76049;43.076;25.632;2024-01-27T02:36:19;99914.23;;;0.19;69.02
85623;BME280;76049;43.076;25.632;2024-01-27T02:41:27;99901.52;;;0.36;69.06
85623;BME280;76049;43.076;25.632;2024-01-27T02:46:34;99892.14;;;0.52;68.77
85623;BME280;76049;43.076;25.632;2024-01-27T02:51:41;99888.84;;;0.54;68.63
85623;BME280;76049;43.076;25.632;2024-01-27T02:56:49;99885.52;;;0.51;68.40
85623;BME280;76049;43.076;25.632;2024-01-27T03:01:57;99891.97;;;0.52;68.41
85623;BME280;76049;43.076;25.632;2024-01-27T03:07:05;99894.06;;;0.55;68.40
85623;BME280;76049;43.076;25.632;2024-01-27T03:12:12;99884.71;;;0.59;68.34
85623;BME280;76049;43.076;25.632;2024-01-27T03:17:21;99874.02;;;0.56;68.11
85623;BME280;76049;43.076;25.632;2024-01-27T03:22:28;99868.71;;;0.53;68.28
85623;BME280;76049;43.076;25.632;2024-01-27T03:27:36;99851.39;;;0.47;67.96
85623;BME280;76049;43.076;25.632;2024-01-27T03:32:43;99837.06;;;0.40;68.41
85623;BME280;76049;43.076;25.632;2024-01-27T03:37:51;99830.55;;;0.35;68.50
85623;BME280;76049;43.076;25.632;2024-01-27T03:42:58;99832.15;;;0.34;69.13
85623;BME280;76049;43.076;25.632;2024-01-27T03:48:07;99841.65;;;0.37;69.21
85623;BME280;76049;43.076;25.632;2024-01-27T03:53:15;99843.89;;;0.42;69.03
85623;BME280;76049;43.076;25.632;2024-01-27T03:58:22;99838.65;;;0.44;69.08
85623;BME280;76049;43.076;25.632;2024-01-27T04:03:29;99832.98;;;0.43;68.69
85623;BME280;76049;43.076;25.632;2024-01-27T04:08:37;99833.16;;;0.36;68.63
85623;BME280;76049;43.076;25.632;2024-01-27T04:13:44;99830.08;;;0.32;68.91
85623;BME280;76049;43.076;25.632;2024-01-27T04:18:51;99829.59;;;0.30;68.88
85623;BME280;76049;43.076;25.632;2024-01-27T04:23:59;99823.94;;;0.30;69.03
85623;BME280;76049;43.076;25.632;2024-01-27T04:29:06;99816.59;;;0.31;69.01
85623;BME280;76049;43.076;25.632;2024-01-27T04:34:16;99802.68;;;0.31;69.07
85623;BME280;76049;43.076;25.632;2024-01-27T04:39:24;99791.66;;;0.38;69.21
85623;BME280;76049;43.076;25.632;2024-01-27T04:44:31;99791.30;;;0.53;69.20
85623;BME280;76049;43.076;25.632;2024-01-27T04:49:39;99792.73;;;0.77;68.99
85623;BME280;76049;43.076;25.632;2024-01-27T04:54:47;99798.48;;;1.02;68.44
85623;BME280;76049;43.076;25.632;2024-01-27T04:59:54;99803.24;;;1.25;67.83
85623;BME280;76049;43.076;25.632;2024-01-27T05:05:03;99800.73;;;1.43;67.42
85623;BME280;76049;43.076;25.632;2024-01-27T05:10:14;99794.02;;;1.58;66.87
85623;BME280;76049;43.076;25.632;2024-01-27T05:15:21;99788.70;;;1.68;66.54
85623;BME280;76049;43.076;25.632;2024-01-27T05:20:29;99780.95;;;1.78;66.50
85623;BME280;76049;43.076;25.632;2024-01-27T05:25:36;99776.33;;;1.87;66.25
85623;BME280;76049;43.076;25.632;2024-01-27T05:30:44;99773.28;;;1.92;65.89
85623;BME280;76049;43.076;25.632;2024-01-27T05:35:51;99772.76;;;1.96;65.84
85623;BME280;76049;43.076;25.632;2024-01-27T05:41:14;99776.86;;;2.10;65.75
85623;BME280;76049;43.076;25.632;2024-01-27T05:46:22;99782.45;;;2.14;65.46
85623;BME280;76049;43.076;25.632;2024-01-27T05:51:29;99774.56;;;2.20;65.33
85623;BME280;76049;43.076;25.632;2024-01-27T05:56:37;99770.45;;;2.22;65.05
85623;BME280;76049;43.076;25.632;2024-01-27T06:01:44;99763.27;;;2.24;65.13
85623;BME280;76049;43.076;25.632;2024-01-27T06:06:51;99768.08;;;2.28;65.29
85623;BME280;76049;43.076;25.632;2024-01-27T06:12:01;99774.38;;;2.35;65.13
85623;BME280;76049;43.076;25.632;2024-01-27T06:17:08;99781.69;;;2.44;65.18
85623;BME280;76049;43.076;25.632;2024-01-27T06:22:16;99784.33;;;2.50;65.16
85623;BME280;76049;43.076;25.632;2024-01-27T06:27:23;99803.54;;;2.53;65.03
85623;BME280;76049;43.076;25.632;2024-01-27T06:32:30;99807.19;;;2.55;65.07
85623;BME280;76049;43.076;25.632;2024-01-27T06:37:38;99802.96;;;2.58;65.45
85623;BME280;76049;43.076;25.632;2024-01-27T06:42:47;99811.48;;;2.64;65.91
85623;BME280;76049;43.076;25.632;2024-01-27T06:47:55;99820.87;;;2.73;66.77
85623;BME280;76049;43.076;25.632;2024-01-27T06:53:02;99820.26;;;2.92;67.49
85623;BME280;76049;43.076;25.632;2024-01-27T06:58:12;99815.92;;;3.19;67.75
85623;BME280;76049;43.076;25.632;2024-01-27T07:03:20;99814.06;;;3.48;67.96
85623;BME280;76049;43.076;25.632;2024-01-27T07:08:28;99811.17;;;3.74;68.12
85623;BME280;76049;43.076;25.632;2024-01-27T07:13:38;99807.36;;;3.93;68.38
85623;BME280;76049;43.076;25.632;2024-01-27T07:18:46;99801.91;;;4.02;68.34
85623;BME280;76049;43.076;25.632;2024-01-27T07:23:53;99792.54;;;4.02;69.07
85623;BME280;76049;43.076;25.632;2024-01-27T07:29:01;99783.70;;;3.92;69.57
85623;BME280;76049;43.076;25.632;2024-01-27T07:34:08;99786.34;;;3.93;70.00
85623;BME280;76049;43.076;25.632;2024-01-27T07:39:16;99776.95;;;3.91;70.00
85623;BME280;76049;43.076;25.632;2024-01-27T07:44:24;99771.39;;;3.93;70.16
85623;BME280;76049;43.076;25.632;2024-01-27T07:49:32;99771.14;;;4.03;70.38
85623;BME280;76049;43.076;25.632;2024-01-27T07:54:40;99767.16;;;4.15;70.17
85623;BME280;76049;43.076;25.632;2024-01-27T07:59:49;99764.47;;;4.24;69.98
85623;BME280;76049;43.076;25.632;2024-01-27T08:04:56;99753.39;;;4.30;70.02
85623;BME280;76049;43.076;25.632;2024-01-27T08:10:08;99750.41;;;4.32;70.29
85623;BME280;76049;43.076;25.632;2024-01-27T08:15:17;99750.86;;;4.37;70.26
85623;BME280;76049;43.076;25.632;2024-01-27T08:20:24;99758.31;;;4.42;70.15
85623;BME280;76049;43.076;25.632;2024-01-27T08:25:33;99762.38;;;4.42;70.39
85623;BME280;76049;43.076;25.632;2024-01-27T08:30:41;99769.55;;;4.40;70.46
85623;BME280;76049;43.076;25.632;2024-01-27T08:35:50;99773.83;;;4.36;70.63
85623;BME280;76049;43.076;25.632;2024-01-27T08:40:58;99773.74;;;4.30;70.89
85623;BME280;76049;43.076;25.632;2024-01-27T08:46:05;99774.20;;;4.32;71.07
85623;BME280;76049;43.076;25.632;2024-01-27T08:51:17;99767.12;;;4.40;71.01
85623;BME280;76049;43.076;25.632;2024-01-27T08:56:25;99768.29;;;4.52;71.00
85623;BME280;76049;43.076;25.632;2024-01-27T09:01:34;99769.64;;;4.63;70.90
85623;BME280;76049;43.076;25.632;2024-01-27T09:06:42;99770.87;;;4.74;70.65
85623;BME280;76049;43.076;25.632;2024-01-27T09:11:49;99774.35;;;4.88;70.82
85623;BME280;76049;43.076;25.632;2024-01-27T09:16:57;99773.33;;;4.95;71.96
85623;BME280;76049;43.076;25.632;2024-01-27T09:22:05;99775.20;;;5.10;73.54
85623;BME280;76049;43.076;25.632;2024-01-27T09:27:13;99779.44;;;5.39;73.66
85623;BME280;76049;43.076;25.632;2024-01-27T09:32:20;99784.84;;;5.70;73.23
85623;BME280;76049;43.076;25.632;2024-01-27T09:37:31;99790.51;;;5.97;73.12
85623;BME280;76049;43.076;25.632;2024-01-27T09:42:39;99798.31;;;6.14;72.56
85623;BME280;76049;43.076;25.632;2024-01-27T09:47:52;99790.71;;;6.23;72.31
85623;BME280;76049;43.076;25.632;2024-01-27T09:53:00;99791.77;;;6.31;71.68
85623;BME280;76049;43.076;25.632;2024-01-27T09:58:10;99793.45;;;6.38;71.29
85623;BME280;76049;43.076;25.632;2024-01-27T10:03:18;99795.54;;;6.46;71.33
85623;BME280;76049;43.076;25.632;2024-01-27T10:08:27;99796.19;;;6.48;71.17
85623;BME280;76049;43.076;25.632;2024-01-27T10:13:35;99793.80;;;6.49;71.15
85623;BME280;76049;43.076;25.632;2024-01-27T10:18:47;99790.36;;;6.46;71.09
85623;BME280;76049;43.076;25.632;2024-01-27T10:23:57;99799.15;;;6.41;71.01
85623;BME280;76049;43.076;25.632;2024-01-27T10:29:07;99803.14;;;6.45;70.67
85623;BME280;76049;43.076;25.632;2024-01-27T10:34:19;99803.46;;;6.53;70.66
85623;BME280;76049;43.076;25.632;2024-01-27T10:39:39;99800.60;;;6.57;70.45
85623;BME280;76049;43.076;25.632;2024-01-27T10:44:57;99801.13;;;6.59;70.39
85623;BME280;76049;43.076;25.632;2024-01-27T10:50:12;99803.86;;;6.56;70.40
85623;BME280;76049;43.076;25.632;2024-01-27T10:55:23;99800.74;;;6.54;70.42
85623;BME280;76049;43.076;25.632;2024-01-27T11:00:32;99801.70;;;6.55;70.41
85623;BME280;76049;43.076;25.632;2024-01-27T11:05:48;99805.80;;;6.61;70.55
85623;BME280;76049;43.076;25.632;2024-01-27T11:11:04;99807.79;;;6.70;70.32
85623;BME280;76049;43.076;25.632;2024-01-27T11:16:24;99811.42;;;6.79;70.27
85623;BME280;76049;43.076;25.632;2024-01-27T11:21:33;99814.69;;;6.82;70.15
85623;BME280;76049;43.076;25.632;2024-01-27T11:26:42;99818.58;;;6.84;70.11
85623;BME280;76049;43.076;25.632;2024-01-27T11:31:51;99819.79;;;6.86;70.23
85623;BME280;76049;43.076;25.632;2024-01-27T11:36:59;99823.38;;;6.85;70.42
85623;BME280;76049;43.076;25.632;2024-01-27T11:46:14;99832.67;;;6.96;70.29
85623;BME280;76049;43.076;25.632;2024-01-27T11:51:54;99834.12;;;6.95;70.46
85623;BME280;76049;43.076;25.632;2024-01-27T11:56:58;99843.14;;;6.88;70.41
85623;BME280;76049;43.076;25.632;2024-01-27T12:02:05;99843.58;;;6.83;70.63
85623;BME280;76049;43.076;25.632;2024-01-27T12:07:09;99841.14;;;6.79;70.65
85623;BME280;76049;43.076;25.632;2024-01-27T12:12:15;99844.78;;;6.82;70.66
85623;BME280;76049;43.076;25.632;2024-01-27T12:17:22;99852.59;;;6.89;70.58
85623;BME280;76049;43.076;25.632;2024-01-27T12:22:27;99855.45;;;6.96;70.38
85623;BME280;76049;43.076;25.632;2024-01-27T12:27:32;99853.45;;;7.01;70.10
85623;BME280;76049;43.076;25.632;2024-01-27T12:32:36;99850.45;;;7.05;69.69
85623;BME280;76049;43.076;25.632;2024-01-27T12:37:42;99850.02;;;7.07;69.43
85623;BME280;76049;43.076;25.632;2024-01-27T12:42:48;99857.21;;;7.13;69.25
85623;BME280;76049;43.076;25.632;2024-01-27T12:47:55;99861.95;;;7.22;69.05
85623;BME280;76049;43.076;25.632;2024-01-27T12:52:58;99867.14;;;7.30;68.68
85623;BME280;76049;43.076;25.632;2024-01-27T12:58:03;99869.57;;;7.39;68.45
85623;BME280;76049;43.076;25.632;2024-01-27T13:03:07;99879.96;;;7.50;68.11
85623;BME280;76049;43.076;25.632;2024-01-27T13:08:12;99891.11;;;7.61;67.95
85623;BME280;76049;43.076;25.632;2024-01-27T13:13:16;99897.66;;;7.65;67.44
85623;BME280;76049;43.076;25.632;2024-01-27T13:18:20;99906.85;;;7.68;67.44
85623;BME280;76049;43.076;25.632;2024-01-27T13:23:25;99915.42;;;7.70;67.42
85623;BME280;76049;43.076;25.632;2024-01-27T13:28:29;99916.00;;;7.71;67.47
85623;BME280;76049;43.076;25.632;2024-01-27T13:33:33;99921.02;;;7.72;67.80
85623;BME280;76049;43.076;25.632;2024-01-27T13:38:38;99924.76;;;7.72;67.74
85623;BME280;76049;43.076;25.632;2024-01-27T13:43:42;99932.17;;;7.76;67.76
85623;BME280;76049;43.076;25.632;2024-01-27T13:48:46;99937.38;;;7.84;67.25
85623;BME280;76049;43.076;25.632;2024-01-27T13:53:53;99941.04;;;7.92;66.58
85623;BME280;76049;43.076;25.632;2024-01-27T13:58:57;99950.21;;;7.89;65.79
85623;BME280;76049;43.076;25.632;2024-01-27T14:04:04;99962.66;;;7.83;65.12
85623;BME280;76049;43.076;25.632;2024-01-27T14:09:08;99966.93;;;7.75;65.15
85623;BME280;76049;43.076;25.632;2024-01-27T14:14:16;99965.65;;;7.67;64.98
85623;BME280;76049;43.076;25.632;2024-01-27T14:19:21;99963.49;;;7.58;65.10
85623;BME280;76049;43.076;25.632;2024-01-27T14:24:25;99965.86;;;7.51;65.28
85623;BME280;76049;43.076;25.632;2024-01-27T14:29:29;99980.53;;;7.43;65.31
85623;BME280;76049;43.076;25.632;2024-01-27T14:34:33;99983.56;;;7.40;65.28
85623;BME280;76049;43.076;25.632;2024-01-27T14:39:37;99985.23;;;7.42;65.09
85623;BME280;76049;43.076;25.632;2024-01-27T14:44:46;99989.52;;;7.42;64.82
85623;BME280;76049;43.076;25.632;2024-01-27T14:49:52;99987.57;;;7.38;64.75
85623;BME280;76049;43.076;25.632;2024-01-27T14:54:56;99976.41;;;7.32;65.04
85623;BME280;76049;43.076;25.632;2024-01-27T15:00:00;99976.14;;;7.24;65.28
85623;BME280;76049;43.076;25.632;2024-01-27T15:05:05;99984.49;;;7.17;65.62
85623;BME280;76049;43.076;25.632;2024-01-27T15:10:11;99990.31;;;7.08;65.29
85623;BME280;76049;43.076;25.632;2024-01-27T15:15:15;100003.23;;;7.01;64.69
85623;BME280;76049;43.076;25.632;2024-01-27T15:20:20;100015.35;;;7.02;63.98
85623;BME280;76049;43.076;25.632;2024-01-27T15:25:23;100030.86;;;7.09;63.53
85623;BME280;76049;43.076;25.632;2024-01-27T15:30:28;100046.29;;;7.17;63.12
85623;BME280;76049;43.076;25.632;2024-01-27T15:35:32;100048.67;;;7.16;62.73
85623;BME280;76049;43.076;25.632;2024-01-27T15:40:37;100059.92;;;7.12;62.48
85623;BME280;76049;43.076;25.632;2024-01-27T15:45:41;100053.45;;;7.06;62.07
85623;BME280;76049;43.076;25.632;2024-01-27T15:50:45;100057.27;;;6.99;61.77
85623;BME280;76049;43.076;25.632;2024-01-27T15:55:50;100060.95;;;6.93;61.76
85623;BME280;76049;43.076;25.632;2024-01-27T16:00:54;100070.39;;;6.88;61.88
85623;BME280;76049;43.076;25.632;2024-01-27T16:05:59;100086.58;;;6.84;61.59
85623;BME280;76049;43.076;25.632;2024-01-27T16:11:03;100100.65;;;6.79;62.11
85623;BME280;76049;43.076;25.632;2024-01-27T16:16:07;100109.79;;;6.75;62.09
85623;BME280;76049;43.076;25.632;2024-01-27T16:21:12;100125.90;;;6.69;62.45
85623;BME280;76049;43.076;25.632;2024-01-27T16:26:16;100139.14;;;6.70;62.70
85623;BME280;76049;43.076;25.632;2024-01-27T16:31:21;100147.73;;;6.74;62.80
85623;BME280;76049;43.076;25.632;2024-01-27T16:36:25;100161.38;;;6.74;62.65
85623;BME280;76049;43.076;25.632;2024-01-27T16:41:29;100173.44;;;6.68;62.69
85623;BME280;76049;43.076;25.632;2024-01-27T16:46:34;100179.36;;;6.56;62.49
85623;BME280;76049;43.076;25.632;2024-01-27T16:51:38;100187.59;;;6.40;62.88
85623;BME280;76049;43.076;25.632;2024-01-27T16:56:42;100194.19;;;6.27;63.55
85623;BME280;76049;43.076;25.632;2024-01-27T17:01:46;100204.90;;;6.13;63.97
85623;BME280;76049;43.076;25.632;2024-01-27T17:06:53;100224.44;;;6.04;64.73
85623;BME280;76049;43.076;25.632;2024-01-27T17:11:57;100230.27;;;6.05;64.46
85623;BME280;76049;43.076;25.632;2024-01-27T17:17:01;100241.49;;;6.12;64.68
85623;BME280;76049;43.076;25.632;2024-01-27T17:22:05;100249.55;;;6.19;64.54
85623;BME280;76049;43.076;25.632;2024-01-27T17:27:09;100250.02;;;6.22;64.60
85623;BME280;76049;43.076;25.632;2024-01-27T17:32:13;100240.45;;;6.20;64.53
85623;BME280;76049;43.076;25.632;2024-01-27T17:37:17;100249.46;;;6.13;64.57
85623;BME280;76049;43.076;25.632;2024-01-27T17:42:21;100255.40;;;6.05;64.25
85623;BME280;76049;43.076;25.632;2024-01-27T17:47:25;100254.23;;;5.97;63.80
85623;BME280;76049;43.076;25.632;2024-01-27T17:52:29;100260.20;;;5.88;63.54
85623;BME280;76049;43.076;25.632;2024-01-27T17:57:34;100266.56;;;5.77;63.71
85623;BME280;76049;43.076;25.632;2024-01-27T18:02:40;100267.65;;;5.70;63.89
85623;BME280;76049;43.076;25.632;2024-01-27T18:07:44;100276.67;;;5.70;63.54
85623;BME280;76049;43.076;25.632;2024-01-27T18:12:48;100277.94;;;5.68;63.17
85623;BME280;76049;43.076;25.632;2024-01-27T18:17:53;100278.11;;;5.62;62.88
85623;BME280;76049;43.076;25.632;2024-01-27T18:22:58;100281.63;;;5.57;62.97
85623;BME280;76049;43.076;25.632;2024-01-27T18:28:02;100286.26;;;5.49;62.96
85623;BME280;76049;43.076;25.632;2024-01-27T18:33:06;100292.70;;;5.33;63.09
85623;BME280;76049;43.076;25.632;2024-01-27T18:38:12;100295.40;;;5.18;63.02
85623;BME280;76049;43.076;25.632;2024-01-27T18:43:21;100295.91;;;5.04;63.26
85623;BME280;76049;43.076;25.632;2024-01-27T18:48:25;100306.62;;;4.94;63.19
85623;BME280;76049;43.076;25.632;2024-01-27T18:53:30;100311.94;;;4.92;63.04
85623;BME280;76049;43.076;25.632;2024-01-27T18:58:36;100322.01;;;4.97;62.96
85623;BME280;76049;43.076;25.632;2024-01-27T19:03:40;100326.05;;;5.04;62.92
85623;BME280;76049;43.076;25.632;2024-01-27T19:08:44;100322.09;;;5.07;62.54
85623;BME280;76049;43.076;25.632;2024-01-27T19:13:48;100328.84;;;5.05;62.49
85623;BME280;76049;43.076;25.632;2024-01-27T19:18:53;100337.27;;;4.98;62.57
85623;BME280;76049;43.076;25.632;2024-01-27T19:23:57;100335.61;;;4.91;62.89
85623;BME280;76049;43.076;25.632;2024-01-27T19:29:01;100337.63;;;4.81;63.01
85623;BME280;76049;43.076;25.632;2024-01-27T19:34:05;100346.72;;;4.77;63.10
85623;BME280;76049;43.076;25.632;2024-01-27T19:39:09;100352.94;;;4.76;63.13
85623;BME280;76049;43.076;25.632;2024-01-27T19:44:14;100368.50;;;4.79;63.03
85623;BME280;76049;43.076;25.632;2024-01-27T19:49:18;100384.34;;;4.86;63.03
85623;BME280;76049;43.076;25.632;2024-01-27T19:54:22;100389.08;;;4.92;62.55
85623;BME280;76049;43.076;25.632;2024-01-27T19:59:26;100385.23;;;4.98;62.24
85623;BME280;76049;43.076;25.632;2024-01-27T20:04:31;100383.05;;;5.04;62.20
85623;BME280;76049;43.076;25.632;2024-01-27T20:09:35;100388.10;;;5.11;61.86
85623;BME280;76049;43.076;25.632;2024-01-27T20:14:39;100393.99;;;5.15;61.73
85623;BME280;76049;43.076;25.632;2024-01-27T20:19:43;100399.55;;;5.17;61.46
85623;BME280;76049;43.076;25.632;2024-01-27T20:24:47;100405.45;;;5.17;61.33
85623;BME280;76049;43.076;25.632;2024-01-27T20:29:51;100405.48;;;5.15;61.26
85623;BME280;76049;43.076;25.632;2024-01-27T20:34:55;100407.85;;;5.13;61.26
85623;BME280;76049;43.076;25.632;2024-01-27T20:39:59;100406.20;;;5.12;61.40
85623;BME280;76049;43.076;25.632;2024-01-27T20:45:05;100393.52;;;5.11;61.18
85623;BME280;76049;43.076;25.632;2024-01-27T20:50:09;100399.83;;;5.16;60.93
85623;BME280;76049;43.076;25.632;2024-01-27T20:55:14;100409.55;;;5.23;60.82
85623;BME280;76049;43.076;25.632;2024-01-27T21:00:18;100409.31;;;5.28;60.15
85623;BME280;76049;43.076;25.632;2024-01-27T21:05:24;100415.54;;;5.26;60.31
85623;BME280;76049;43.076;25.632;2024-01-27T21:10:28;100407.88;;;5.21;60.46
85623;BME280;76049;43.076;25.632;2024-01-27T21:15:32;100408.70;;;5.04;60.73
85623;BME280;76049;43.076;25.632;2024-01-27T21:20:37;100402.99;;;4.82;61.25
85623;BME280;76049;43.076;25.632;2024-01-27T21:25:41;100404.80;;;4.58;61.97
85623;BME280;76049;43.076;25.632;2024-01-27T21:30:45;100412.28;;;4.35;62.54
85623;BME280;76049;43.076;25.632;2024-01-27T21:35:49;100417.99;;;4.17;63.13
85623;BME280;76049;43.076;25.632;2024-01-27T21:40:53;100425.55;;;4.03;63.75
85623;BME280;76049;43.076;25.632;2024-01-27T21:45:57;100423.50;;;3.97;64.39
85623;BME280;76049;43.076;25.632;2024-01-27T21:51:01;100422.05;;;3.90;64.91
85623;BME280;76049;43.076;25.632;2024-01-27T21:56:06;100420.17;;;3.81;65.40
85623;BME280;76049;43.076;25.632;2024-01-27T22:01:10;100429.64;;;3.74;65.56
85623;BME280;76049;43.076;25.632;2024-01-27T22:06:14;100434.65;;;3.67;65.66
85623;BME280;76049;43.076;25.632;2024-01-27T22:11:19;100440.40;;;3.68;65.77
85623;BME280;76049;43.076;25.632;2024-01-27T22:16:23;100440.45;;;3.72;65.99
85623;BME280;76049;43.076;25.632;2024-01-27T22:21:27;100452.42;;;3.71;65.60
85623;BME280;76049;43.076;25.632;2024-01-27T22:26:31;100461.89;;;3.64;65.86
85623;BME280;76049;43.076;25.632;2024-01-27T22:31:36;100471.02;;;3.52;66.15
85623;BME280;76049;43.076;25.632;2024-01-27T22:36:51;100486.00;;;3.38;66.71
85623;BME280;76049;43.076;25.632;2024-01-27T22:41:57;100492.66;;;3.35;67.07
85623;BME280;76049;43.076;25.632;2024-01-27T22:47:00;100495.52;;;3.37;67.28
85623;BME280;76049;43.076;25.632;2024-01-27T22:52:05;100500.70;;;3.41;67.48
85623;BME280;76049;43.076;25.632;2024-01-27T22:57:10;100498.44;;;3.45;67.55
85623;BME280;76049;43.076;25.632;2024-01-27T23:02:17;100500.36;;;3.53;67.26
85623;BME280;76049;43.076;25.632;2024-01-27T23:07:23;100498.70;;;3.65;67.19
85623;BME280;76049;43.076;25.632;2024-01-27T23:12:27;100503.05;;;3.74;66.94
85623;BME280;76049;43.076;25.632;2024-01-27T23:17:32;100508.27;;;3.80;66.90
85623;BME280;76049;43.076;25.632;2024-01-27T23:22:36;100508.05;;;3.80;67.06
85623;BME280;76049;43.076;25.632;2024-01-27T23:27:40;100512.78;;;3.84;67.07
85623;BME280;76049;43.076;25.632;2024-01-27T23:32:44;100512.89;;;3.86;67.10
85623;BME280;76049;43.076;25.632;2024-01-27T23:37:49;100513.40;;;3.85;67.10
85623;BME280;76049;43.076;25.632;2024-01-27T23:42:55;100511.20;;;3.68;67.14
85623;BME280;76049;43.076;25.632;2024-01-27T23:47:59;100512.73;;;3.53;67.37
85623;BME280;76049;43.076;25.632;2024-01-27T23:53:03;100512.79;;;3.45;67.74
85623;BME280;76049;43.076;25.632;2024-01-27T23:58:12;100512.20;;;3.35;68.15
